sensor_id;sensor_type;location;lat;lon;timestamp;pressure;altitude;pressure_sealevel;temperature;humidity
75008;BME280;63554;48.940;12.050;2023-03-31T00:03:06;96926.72;;;5.56;88.68
75008;BME280;63554;48.940;12.050;2023-03-31T00:07:13;96919.31;;;5.58;89.98
75008;BME280;63554;48.940;12.050;2023-03-31T00:11:17;96916.88;;;5.70;90.45
75008;BME280;63554;48.940;12.050;2023-03-31T00:15:19;96921.34;;;5.56;89.33
75008;BME280;63554;48.940;12.050;2023-03-31T00:19:22;96919.00;;;5.40;88.81
75008;BME280;63554;48.940;12.050;2023-03-31T00:23:26;96910.91;;;5.33;89.25
75008;BME280;63554;48.940;12.050;2023-03-31T00:27:29;96910.09;;;5.32;89.51
75008;BME280;63554;48.940;12.050;2023-03-31T00:31:32;96902.22;;;5.31;89.98
75008;BME280;63554;48.940;12.050;2023-03-31T00:35:35;96891.50;;;5.31;90.05
75008;BME280;63554;48.940;12.050;2023-03-31T00:39:41;96886.53;;;5.28;89.77
75008;BME280;63554;48.940;12.050;2023-03-31T00:44:01;96887.81;;;5.32;90.49
75008;BME280;63554;48.940;12.050;2023-03-31T00:48:12;96873.75;;;5.30;90.26
75008;BME280;63554;48.940;12.050;2023-03-31T00:52:20;96871.47;;;5.27;90.26
75008;BME280;63554;48.940;12.050;2023-03-31T00:56:28;96877.44;;;5.22;90.24
75008;BME280;63554;48.940;12.050;2023-03-31T01:00:33;96876.97;;;5.12;90.67
75008;BME280;63554;48.940;12.050;2023-03-31T01:04:39;96865.16;;;5.06;90.46
75008;BME280;63554;48.940;12.050;2023-03-31T01:08:46;96851.94;;;5.05;90.79
75008;BME280;63554;48.940;12.050;2023-03-31T01:12:53;96838.09;;;5.01;91.04
75008;BME280;63554;48.940;12.050;2023-03-31T01:16:56;96846.78;;;5.03;90.71
75008;BME280;63554;48.940;12.050;2023-03-31T01:21:22;96841.28;;;4.83;89.95
75008;BME280;63554;48.940;12.050;2023-03-31T01:26:10;96834.56;;;4.66;89.27
75008;BME280;63554;48.940;12.050;2023-03-31T01:30:40;96821.78;;;4.68;90.18
75008;BME280;63554;48.940;12.050;2023-03-31T01:35:25;96813.75;;;4.68;90.38
75008;BME280;63554;48.940;12.050;2023-03-31T01:40:10;96795.16;;;4.60;90.21
75008;BME280;63554;48.940;12.050;2023-03-31T01:44:22;96798.22;;;4.56;90.21
75008;BME280;63554;48.940;12.050;2023-03-31T01:48:37;96799.84;;;4.51;89.68
75008;BME280;63554;48.940;12.050;2023-03-31T01:52:46;96793.63;;;4.50;89.95
75008;BME280;63554;48.940;12.050;2023-03-31T01:56:56;96774.50;;;4.53;90.26
75008;BME280;63554;48.940;12.050;2023-03-31T02:01:03;96774.69;;;4.52;90.35
75008;BME280;63554;48.940;12.050;2023-03-31T02:05:09;96774.25;;;4.48;90.26
75008;BME280;63554;48.940;12.050;2023-03-31T02:09:16;96771.09;;;4.38;89.97
75008;BME280;63554;48.940;12.050;2023-03-31T02:13:24;96769.69;;;4.42;90.98
75008;BME280;63554;48.940;12.050;2023-03-31T02:17:29;96764.94;;;4.44;92.29
75008;BME280;63554;48.940;12.050;2023-03-31T02:21:36;96759.59;;;4.44;93.09
75008;BME280;63554;48.940;12.050;2023-03-31T02:25:44;96759.75;;;4.36;93.15
75008;BME280;63554;48.940;12.050;2023-03-31T02:29:51;96755.38;;;4.28;93.23
75008;BME280;63554;48.940;12.050;2023-03-31T02:33:54;96754.72;;;4.26;93.37
75008;BME280;63554;48.940;12.050;2023-03-31T02:37:57;96745.47;;;4.29;93.91
75008;BME280;63554;48.940;12.050;2023-03-31T02:42:00;96726.34;;;4.32;93.65
75008;BME280;63554;48.940;12.050;2023-03-31T02:46:08;96724.28;;;4.34;94.02
75008;BME280;63554;48.940;12.050;2023-03-31T02:50:12;96715.84;;;4.37;93.79
75008;BME280;63554;48.940;12.050;2023-03-31T02:54:24;96710.94;;;4.41;93.94
75008;BME280;63554;48.940;12.050;2023-03-31T02:58:54;96716.72;;;4.44;93.57
75008;BME280;63554;48.940;12.050;2023-03-31T03:03:12;96712.41;;;4.43;93.43
75008;BME280;63554;48.940;12.050;2023-03-31T03:07:23;96709.50;;;4.45;93.44
75008;BME280;63554;48.940;12.050;2023-03-31T03:11:37;96707.47;;;4.47;93.22
75008;BME280;63554;48.940;12.050;2023-03-31T03:15:44;96694.28;;;4.45;93.45
75008;BME280;63554;48.940;12.050;2023-03-31T03:19:55;96688.94;;;4.45;93.06
75008;BME280;63554;48.940;12.050;2023-03-31T03:23:58;96688.94;;;4.52;93.28
75008;BME280;63554;48.940;12.050;2023-03-31T03:28:01;96682.38;;;4.54;93.37
75008;BME280;63554;48.940;12.050;2023-03-31T03:32:04;96660.72;;;4.49;92.92
75008;BME280;63554;48.940;12.050;2023-03-31T03:36:09;96641.97;;;4.49;92.48
75008;BME280;63554;48.940;12.050;2023-03-31T03:40:12;96642.59;;;4.51;92.50
75008;BME280;63554;48.940;12.050;2023-03-31T03:44:15;96646.50;;;4.49;92.49
75008;BME280;63554;48.940;12.050;2023-03-31T03:48:18;96650.63;;;4.51;92.02
75008;BME280;63554;48.940;12.050;2023-03-31T03:52:23;96630.00;;;4.52;92.46
75008;BME280;63554;48.940;12.050;2023-03-31T03:56:25;96634.13;;;4.54;92.58
75008;BME280;63554;48.940;12.050;2023-03-31T04:00:28;96634.13;;;4.54;92.77
75008;BME280;63554;48.940;12.050;2023-03-31T04:04:31;96618.28;;;4.53;92.83
75008;BME280;63554;48.940;12.050;2023-03-31T04:08:35;96639.50;;;4.54;93.08
75008;BME280;63554;48.940;12.050;2023-03-31T04:12:38;96649.63;;;4.59;93.12
75008;BME280;63554;48.940;12.050;2023-03-31T04:16:41;96644.47;;;4.58;93.58
75008;BME280;63554;48.940;12.050;2023-03-31T04:20:43;96634.38;;;4.60;93.66
75008;BME280;63554;48.940;12.050;2023-03-31T04:24:47;96617.28;;;4.61;93.97
75008;BME280;63554;48.940;12.050;2023-03-31T04:28:52;96618.53;;;4.71;94.16
75008;BME280;63554;48.940;12.050;2023-03-31T04:33:01;96605.34;;;4.70;93.90
75008;BME280;63554;48.940;12.050;2023-03-31T04:37:04;96594.63;;;4.70;94.17
75008;BME280;63554;48.940;12.050;2023-03-31T04:41:12;96580.00;;;4.72;94.12
75008;BME280;63554;48.940;12.050;2023-03-31T04:45:15;96575.47;;;4.73;94.73
75008;BME280;63554;48.940;12.050;2023-03-31T04:49:18;96581.88;;;4.79;94.63
75008;BME280;63554;48.940;12.050;2023-03-31T04:53:21;96565.41;;;4.88;95.22
75008;BME280;63554;48.940;12.050;2023-03-31T04:57:25;96566.25;;;5.02;95.59
75008;BME280;63554;48.940;12.050;2023-03-31T05:01:28;96562.97;;;5.20;95.71
75008;BME280;63554;48.940;12.050;2023-03-31T05:05:34;96556.56;;;5.28;95.55
75008;BME280;63554;48.940;12.050;2023-03-31T05:09:37;96546.47;;;5.37;95.39
75008;BME280;63554;48.940;12.050;2023-03-31T05:13:41;96530.38;;;5.43;95.39
75008;BME280;63554;48.940;12.050;2023-03-31T05:17:43;96513.41;;;5.56;95.43
75008;BME280;63554;48.940;12.050;2023-03-31T05:21:46;96490.06;;;5.70;95.19
75008;BME280;63554;48.940;12.050;2023-03-31T05:25:49;96475.19;;;5.74;95.42
75008;BME280;63554;48.940;12.050;2023-03-31T05:29:53;96447.91;;;5.77;95.20
75008;BME280;63554;48.940;12.050;2023-03-31T05:33:56;96447.06;;;5.83;95.10
75008;BME280;63554;48.940;12.050;2023-03-31T05:37:58;96445.59;;;6.01;95.08
75008;BME280;63554;48.940;12.050;2023-03-31T05:42:01;96431.91;;;6.09;95.38
75008;BME280;63554;48.940;12.050;2023-03-31T05:46:08;96430.19;;;6.21;95.01
75008;BME280;63554;48.940;12.050;2023-03-31T05:50:11;96416.06;;;6.32;94.96
75008;BME280;63554;48.940;12.050;2023-03-31T05:54:15;96417.91;;;6.39;95.11
75008;BME280;63554;48.940;12.050;2023-03-31T05:58:18;96407.75;;;6.41;94.52
75008;BME280;63554;48.940;12.050;2023-03-31T06:02:22;96399.81;;;6.52;94.17
75008;BME280;63554;48.940;12.050;2023-03-31T06:06:25;96386.50;;;6.64;94.41
75008;BME280;63554;48.940;12.050;2023-03-31T06:10:28;96382.34;;;6.68;93.93
75008;BME280;63554;48.940;12.050;2023-03-31T06:14:31;96374.22;;;6.75;93.90
75008;BME280;63554;48.940;12.050;2023-03-31T06:18:35;96367.97;;;6.81;93.63
75008;BME280;63554;48.940;12.050;2023-03-31T06:22:38;96355.13;;;6.83;93.60
75008;BME280;63554;48.940;12.050;2023-03-31T06:26:40;96344.75;;;6.87;93.29
75008;BME280;63554;48.940;12.050;2023-03-31T06:30:43;96335.34;;;6.96;93.49
75008;BME280;63554;48.940;12.050;2023-03-31T06:34:47;96342.66;;;7.07;93.49
75008;BME280;63554;48.940;12.050;2023-03-31T06:38:50;96325.66;;;7.13;93.53
75008;BME280;63554;48.940;12.050;2023-03-31T06:42:52;96338.81;;;7.22;93.36
75008;BME280;63554;48.940;12.050;2023-03-31T06:46:56;96331.78;;;7.21;93.33
75008;BME280;63554;48.940;12.050;2023-03-31T06:51:02;96325.59;;;7.20;93.20
75008;BME280;63554;48.940;12.050;2023-03-31T06:55:06;96307.94;;;7.24;93.29
75008;BME280;63554;48.940;12.050;2023-03-31T06:59:10;96299.44;;;7.27;93.48
75008;BME280;63554;48.940;12.050;2023-03-31T07:03:13;96303.31;;;7.31;93.44
75008;BME280;63554;48.940;12.050;2023-03-31T07:07:21;96287.16;;;7.31;93.52
75008;BME280;63554;48.940;12.050;2023-03-31T07:11:24;96281.19;;;7.29;93.60
75008;BME280;63554;48.940;12.050;2023-03-31T07:15:26;96287.00;;;7.26;93.44
75008;BME280;63554;48.940;12.050;2023-03-31T07:19:29;96299.06;;;7.24;93.65
75008;BME280;63554;48.940;12.050;2023-03-31T07:23:36;96315.31;;;7.29;93.98
75008;BME280;63554;48.940;12.050;2023-03-31T07:27:39;96327.75;;;7.30;93.63
75008;BME280;63554;48.940;12.050;2023-03-31T07:31:42;96327.53;;;7.31;93.50
75008;BME280;63554;48.940;12.050;2023-03-31T07:35:45;96329.31;;;7.38;93.43
75008;BME280;63554;48.940;12.050;2023-03-31T07:40:06;96335.91;;;7.42;93.33
75008;BME280;63554;48.940;12.050;2023-03-31T07:44:09;96327.81;;;7.42;93.28
75008;BME280;63554;48.940;12.050;2023-03-31T07:48:12;96340.00;;;7.44;93.47
75008;BME280;63554;48.940;12.050;2023-03-31T07:52:15;96352.66;;;7.44;93.57
75008;BME280;63554;48.940;12.050;2023-03-31T07:56:23;96349.13;;;7.43;93.77
75008;BME280;63554;48.940;12.050;2023-03-31T08:00:26;96353.25;;;7.46;93.70
75008;BME280;63554;48.940;12.050;2023-03-31T08:04:29;96346.66;;;7.42;94.10
75008;BME280;63554;48.940;12.050;2023-03-31T08:08:32;96346.44;;;7.43;93.90
75008;BME280;63554;48.940;12.050;2023-03-31T08:12:36;96333.00;;;7.43;94.27
75008;BME280;63554;48.940;12.050;2023-03-31T08:16:39;96327.81;;;7.42;94.36
75008;BME280;63554;48.940;12.050;2023-03-31T08:20:42;96309.13;;;7.47;93.93
75008;BME280;63554;48.940;12.050;2023-03-31T08:24:45;96290.88;;;7.49;94.46
75008;BME280;63554;48.940;12.050;2023-03-31T08:28:50;96277.78;;;7.52;94.58
75008;BME280;63554;48.940;12.050;2023-03-31T08:32:53;96265.53;;;7.57;94.69
75008;BME280;63554;48.940;12.050;2023-03-31T08:36:56;96238.13;;;7.60;94.73
75008;BME280;63554;48.940;12.050;2023-03-31T08:40:59;96224.44;;;7.61;94.92
75008;BME280;63554;48.940;12.050;2023-03-31T08:45:10;96192.50;;;7.65;94.84
75008;BME280;63554;48.940;12.050;2023-03-31T08:49:18;96178.56;;;7.68;94.88
75008;BME280;63554;48.940;12.050;2023-03-31T08:53:25;96180.34;;;7.74;94.76
75008;BME280;63554;48.940;12.050;2023-03-31T08:57:31;96161.47;;;7.74;94.93
75008;BME280;63554;48.940;12.050;2023-03-31T09:01:37;96184.69;;;7.75;94.77
75008;BME280;63554;48.940;12.050;2023-03-31T09:05:59;96219.47;;;7.77;94.93
75008;BME280;63554;48.940;12.050;2023-03-31T09:10:15;96260.56;;;7.84;94.95
75008;BME280;63554;48.940;12.050;2023-03-31T09:14:29;96283.31;;;7.88;94.83
75008;BME280;63554;48.940;12.050;2023-03-31T09:18:37;96313.91;;;7.93;95.10
75008;BME280;63554;48.940;12.050;2023-03-31T09:22:44;96281.97;;;8.09;94.94
75008;BME280;63554;48.940;12.050;2023-03-31T09:26:51;96244.75;;;8.18;94.36
75008;BME280;63554;48.940;12.050;2023-03-31T09:30:55;96203.66;;;8.46;94.10
75008;BME280;63554;48.940;12.050;2023-03-31T09:35:13;96189.53;;;8.79;93.18
75008;BME280;63554;48.940;12.050;2023-03-31T09:39:17;96168.66;;;8.86;92.42
75008;BME280;63554;48.940;12.050;2023-03-31T09:43:21;96154.69;;;8.89;92.15
75008;BME280;63554;48.940;12.050;2023-03-31T09:47:31;96167.13;;;8.90;91.05
75008;BME280;63554;48.940;12.050;2023-03-31T09:51:36;96170.50;;;9.09;90.70
75008;BME280;63554;48.940;12.050;2023-03-31T09:55:45;96175.53;;;9.35;90.90
75008;BME280;63554;48.940;12.050;2023-03-31T09:59:52;96163.25;;;9.56;89.88
75008;BME280;63554;48.940;12.050;2023-03-31T10:04:07;96162.13;;;9.85;89.42
75008;BME280;63554;48.940;12.050;2023-03-31T10:08:21;96140.78;;;10.18;87.41
75008;BME280;63554;48.940;12.050;2023-03-31T10:12:27;96135.19;;;10.80;85.63
75008;BME280;63554;48.940;12.050;2023-03-31T10:16:31;96115.88;;;11.21;83.40
75008;BME280;63554;48.940;12.050;2023-03-31T10:20:37;96136.69;;;11.42;82.17
75008;BME280;63554;48.940;12.050;2023-03-31T10:24:42;96112.25;;;11.64;82.00
75008;BME280;63554;48.940;12.050;2023-03-31T10:28:47;96112.69;;;12.16;80.91
75008;BME280;63554;48.940;12.050;2023-03-31T10:32:53;96109.91;;;12.05;77.44
75008;BME280;63554;48.940;12.050;2023-03-31T10:36:55;96100.00;;;12.26;74.73
75008;BME280;63554;48.940;12.050;2023-03-31T10:41:00;96105.25;;;12.38;74.69
75008;BME280;63554;48.940;12.050;2023-03-31T10:45:11;96090.19;;;12.63;73.83
75008;BME280;63554;48.940;12.050;2023-03-31T10:49:36;96070.47;;;12.83;70.83
75008;BME280;63554;48.940;12.050;2023-03-31T10:53:40;96064.59;;;13.12;69.80
75008;BME280;63554;48.940;12.050;2023-03-31T10:57:52;96059.69;;;13.14;66.98
75008;BME280;63554;48.940;12.050;2023-03-31T11:02:12;96070.88;;;13.33;69.22
75008;BME280;63554;48.940;12.050;2023-03-31T11:06:21;96059.91;;;12.92;67.75
75008;BME280;63554;48.940;12.050;2023-03-31T11:10:38;96050.47;;;13.20;68.35
75008;BME280;63554;48.940;12.050;2023-03-31T11:14:54;96055.06;;;13.14;66.24
75008;BME280;63554;48.940;12.050;2023-03-31T11:19:10;96049.63;;;13.09;67.26
75008;BME280;63554;48.940;12.050;2023-03-31T11:23:22;96023.81;;;13.06;66.42
75008;BME280;63554;48.940;12.050;2023-03-31T11:27:37;96012.94;;;12.96;66.25
75008;BME280;63554;48.940;12.050;2023-03-31T11:31:56;96020.63;;;13.40;63.92
75008;BME280;63554;48.940;12.050;2023-03-31T11:36:10;96011.09;;;13.17;63.40
75008;BME280;63554;48.940;12.050;2023-03-31T11:40:32;96005.97;;;13.52;63.74
75008;BME280;63554;48.940;12.050;2023-03-31T11:44:40;96008.38;;;13.33;63.11
75008;BME280;63554;48.940;12.050;2023-03-31T11:48:47;95996.94;;;13.20;63.96
75008;BME280;63554;48.940;12.050;2023-03-31T11:52:57;96015.91;;;12.84;64.76
75008;BME280;63554;48.940;12.050;2023-03-31T11:57:07;95977.88;;;12.84;66.75
75008;BME280;63554;48.940;12.050;2023-03-31T12:01:17;95960.50;;;12.91;66.65
75008;BME280;63554;48.940;12.050;2023-03-31T12:05:25;95983.31;;;12.95;63.93
75008;BME280;63554;48.940;12.050;2023-03-31T12:09:34;95943.16;;;13.12;63.66
75008;BME280;63554;48.940;12.050;2023-03-31T12:13:43;95921.63;;;13.88;63.26
75008;BME280;63554;48.940;12.050;2023-03-31T12:17:54;95916.22;;;14.48;60.45
75008;BME280;63554;48.940;12.050;2023-03-31T12:22:04;95918.94;;;15.02;58.50
75008;BME280;63554;48.940;12.050;2023-03-31T12:26:16;95900.47;;;15.58;57.29
75008;BME280;63554;48.940;12.050;2023-03-31T12:30:29;95887.13;;;15.86;55.55
75008;BME280;63554;48.940;12.050;2023-03-31T12:34:39;95881.84;;;15.94;53.80
75008;BME280;63554;48.940;12.050;2023-03-31T12:38:56;95853.91;;;16.02;52.99
75008;BME280;63554;48.940;12.050;2023-03-31T12:43:23;95827.56;;;16.55;49.49
75008;BME280;63554;48.940;12.050;2023-03-31T12:47:40;95838.53;;;16.50;49.57
75008;BME280;63554;48.940;12.050;2023-03-31T12:51:57;95850.00;;;16.52;49.63
75008;BME280;63554;48.940;12.050;2023-03-31T12:56:02;95829.53;;;15.87;50.82
75008;BME280;63554;48.940;12.050;2023-03-31T13:00:20;95819.13;;;16.51;49.10
75008;BME280;63554;48.940;12.050;2023-03-31T13:04:25;95814.06;;;16.83;47.52
75008;BME280;63554;48.940;12.050;2023-03-31T13:08:53;95807.47;;;17.16;46.77
75008;BME280;63554;48.940;12.050;2023-03-31T13:13:01;95812.34;;;17.19;43.83
75008;BME280;63554;48.940;12.050;2023-03-31T13:17:12;95805.31;;;17.60;43.28
75008;BME280;63554;48.940;12.050;2023-03-31T13:21:21;95789.69;;;17.19;43.34
75008;BME280;63554;48.940;12.050;2023-03-31T13:25:48;95778.91;;;16.57;42.91
75008;BME280;63554;48.940;12.050;2023-03-31T13:29:53;95791.75;;;15.75;44.73
75008;BME280;63554;48.940;12.050;2023-03-31T13:33:57;95792.94;;;15.16;46.24
75008;BME280;63554;48.940;12.050;2023-03-31T13:38:08;95846.59;;;14.86;48.28
75008;BME280;63554;48.940;12.050;2023-03-31T13:42:36;96007.94;;;11.02;66.20
75008;BME280;63554;48.940;12.050;2023-03-31T13:46:50;95959.31;;;9.02;73.85
75008;BME280;63554;48.940;12.050;2023-03-31T13:51:12;95900.44;;;8.82;77.79
75008;BME280;63554;48.940;12.050;2023-03-31T14:00:06;95912.28;;;9.15;76.39
75008;BME280;63554;48.940;12.050;2023-03-31T14:09:00;95937.66;;;9.31;76.12
75008;BME280;63554;48.940;12.050;2023-03-31T14:13:06;95928.63;;;9.42;74.98
75008;BME280;63554;48.940;12.050;2023-03-31T14:17:10;95938.31;;;9.60;74.59
75008;BME280;63554;48.940;12.050;2023-03-31T14:21:20;95889.22;;;9.85;72.98
75008;BME280;63554;48.940;12.050;2023-03-31T14:25:36;95884.22;;;10.71;68.44
75008;BME280;63554;48.940;12.050;2023-03-31T14:29:47;95871.41;;;11.25;68.92
75008;BME280;63554;48.940;12.050;2023-03-31T14:34:07;95847.81;;;11.68;66.36
75008;BME280;63554;48.940;12.050;2023-03-31T14:38:17;95852.56;;;12.04;65.26
75008;BME280;63554;48.940;12.050;2023-03-31T14:42:23;95865.72;;;11.80;64.62
75008;BME280;63554;48.940;12.050;2023-03-31T14:46:29;95879.78;;;12.35;64.10
75008;BME280;63554;48.940;12.050;2023-03-31T14:50:34;95883.13;;;12.73;62.42
75008;BME280;63554;48.940;12.050;2023-03-31T14:54:38;95879.28;;;12.53;60.23
75008;BME280;63554;48.940;12.050;2023-03-31T14:58:43;95892.00;;;12.37;61.04
75008;BME280;63554;48.940;12.050;2023-03-31T15:02:49;95887.44;;;12.74;61.01
75008;BME280;63554;48.940;12.050;2023-03-31T15:06:52;95884.19;;;13.28;59.31
75008;BME280;63554;48.940;12.050;2023-03-31T15:10:58;95883.13;;;13.50;56.99
75008;BME280;63554;48.940;12.050;2023-03-31T15:15:13;95866.28;;;13.48;56.53
75008;BME280;63554;48.940;12.050;2023-03-31T15:19:18;95869.78;;;13.48;54.36
75008;BME280;63554;48.940;12.050;2023-03-31T15:23:23;95874.44;;;13.12;56.58
75008;BME280;63554;48.940;12.050;2023-03-31T15:27:33;95858.69;;;12.98;56.09
75008;BME280;63554;48.940;12.050;2023-03-31T15:31:38;95857.34;;;12.70;55.38
75008;BME280;63554;48.940;12.050;2023-03-31T15:35:42;95857.59;;;12.63;56.08
75008;BME280;63554;48.940;12.050;2023-03-31T15:39:46;95857.03;;;12.72;55.42
75008;BME280;63554;48.940;12.050;2023-03-31T15:44:04;95873.06;;;13.09;54.96
75008;BME280;63554;48.940;12.050;2023-03-31T15:48:15;95870.06;;;13.52;53.65
75008;BME280;63554;48.940;12.050;2023-03-31T15:52:31;95887.50;;;13.10;53.93
75008;BME280;63554;48.940;12.050;2023-03-31T15:56:41;95858.66;;;13.55;53.85
75008;BME280;63554;48.940;12.050;2023-03-31T16:00:47;95855.81;;;13.96;53.17
75008;BME280;63554;48.940;12.050;2023-03-31T16:04:54;95869.53;;;13.24;53.61
75008;BME280;63554;48.940;12.050;2023-03-31T16:09:01;95867.13;;;12.92;54.82
75008;BME280;63554;48.940;12.050;2023-03-31T16:13:06;95870.38;;;12.89;54.42
75008;BME280;63554;48.940;12.050;2023-03-31T16:17:20;95851.06;;;12.49;55.34
75008;BME280;63554;48.940;12.050;2023-03-31T16:21:27;95874.06;;;12.26;55.95
75008;BME280;63554;48.940;12.050;2023-03-31T16:25:38;95884.31;;;12.09;56.24
75008;BME280;63554;48.940;12.050;2023-03-31T16:29:41;95886.03;;;12.40;55.58
75008;BME280;63554;48.940;12.050;2023-03-31T16:33:54;95894.63;;;12.12;57.12
75008;BME280;63554;48.940;12.050;2023-03-31T16:37:57;95894.00;;;11.89;56.92
75008;BME280;63554;48.940;12.050;2023-03-31T16:42:02;95898.25;;;11.80;57.37
75008;BME280;63554;48.940;12.050;2023-03-31T16:46:05;95901.69;;;11.65;57.49
75008;BME280;63554;48.940;12.050;2023-03-31T16:50:09;95909.72;;;11.50;59.35
75008;BME280;63554;48.940;12.050;2023-03-31T16:54:12;95899.88;;;11.33;60.70
75008;BME280;63554;48.940;12.050;2023-03-31T16:58:15;95902.72;;;11.16;61.39
75008;BME280;63554;48.940;12.050;2023-03-31T17:02:18;95896.53;;;11.63;60.67
75008;BME280;63554;48.940;12.050;2023-03-31T17:06:23;95911.84;;;11.85;60.01
75008;BME280;63554;48.940;12.050;2023-03-31T17:10:26;95904.13;;;11.61;61.33
75008;BME280;63554;48.940;12.050;2023-03-31T17:14:28;95900.75;;;11.06;63.23
75008;BME280;63554;48.940;12.050;2023-03-31T17:18:31;95902.75;;;10.84;63.79
75008;BME280;63554;48.940;12.050;2023-03-31T17:22:36;95912.03;;;10.66;63.66
75008;BME280;63554;48.940;12.050;2023-03-31T17:26:39;95910.59;;;10.58;63.47
75008;BME280;63554;48.940;12.050;2023-03-31T17:30:41;95920.63;;;10.58;63.97
75008;BME280;63554;48.940;12.050;2023-03-31T17:34:48;95916.47;;;10.50;64.02
75008;BME280;63554;48.940;12.050;2023-03-31T17:38:52;95929.41;;;10.43;64.55
75008;BME280;63554;48.940;12.050;2023-03-31T17:42:55;95938.38;;;10.26;66.47
75008;BME280;63554;48.940;12.050;2023-03-31T17:46:58;95937.38;;;10.10;67.28
75008;BME280;63554;48.940;12.050;2023-03-31T17:51:03;95940.75;;;10.01;66.52
75008;BME280;63554;48.940;12.050;2023-03-31T17:55:09;95940.81;;;9.84;66.99
75008;BME280;63554;48.940;12.050;2023-03-31T17:59:12;95939.38;;;9.76;67.57
75008;BME280;63554;48.940;12.050;2023-03-31T18:03:14;95941.09;;;9.65;67.94
75008;BME280;63554;48.940;12.050;2023-03-31T18:07:18;95947.19;;;9.56;68.69
75008;BME280;63554;48.940;12.050;2023-03-31T18:11:24;95940.06;;;9.49;69.17
75008;BME280;63554;48.940;12.050;2023-03-31T18:15:27;95947.84;;;9.46;69.31
75008;BME280;63554;48.940;12.050;2023-03-31T18:19:31;95941.50;;;9.35;69.80
75008;BME280;63554;48.940;12.050;2023-03-31T18:23:34;95953.19;;;9.24;70.19
75008;BME280;63554;48.940;12.050;2023-03-31T18:27:39;95974.44;;;9.20;70.38
75008;BME280;63554;48.940;12.050;2023-03-31T18:31:42;95964.97;;;9.18;70.50
75008;BME280;63554;48.940;12.050;2023-03-31T18:35:45;95960.56;;;9.12;70.72
75008;BME280;63554;48.940;12.050;2023-03-31T18:39:48;95958.00;;;9.05;70.84
75008;BME280;63554;48.940;12.050;2023-03-31T18:43:53;95974.94;;;9.00;71.00
75008;BME280;63554;48.940;12.050;2023-03-31T18:47:57;95982.69;;;8.97;71.23
75008;BME280;63554;48.940;12.050;2023-03-31T18:52:00;95988.56;;;8.94;71.15
75008;BME280;63554;48.940;12.050;2023-03-31T18:56:04;96000.66;;;8.91;71.09
75008;BME280;63554;48.940;12.050;2023-03-31T19:00:10;95997.72;;;8.93;70.88
75008;BME280;63554;48.940;12.050;2023-03-31T19:04:15;96003.53;;;9.01;69.63
75008;BME280;63554;48.940;12.050;2023-03-31T19:08:18;96010.94;;;9.06;69.63
75008;BME280;63554;48.940;12.050;2023-03-31T19:12:21;96019.03;;;9.06;69.24
75008;BME280;63554;48.940;12.050;2023-03-31T19:16:25;96002.56;;;9.07;69.13
75008;BME280;63554;48.940;12.050;2023-03-31T19:20:29;95999.97;;;9.13;68.71
75008;BME280;63554;48.940;12.050;2023-03-31T19:24:31;95996.22;;;9.14;68.79
75008;BME280;63554;48.940;12.050;2023-03-31T19:28:34;96000.19;;;9.11;69.41
75008;BME280;63554;48.940;12.050;2023-03-31T19:32:39;95999.63;;;9.09;69.62
75008;BME280;63554;48.940;12.050;2023-03-31T19:36:43;96009.78;;;9.02;70.06
75008;BME280;63554;48.940;12.050;2023-03-31T19:40:46;96013.41;;;8.96;70.41
75008;BME280;63554;48.940;12.050;2023-03-31T19:44:49;96004.69;;;8.88;71.07
75008;BME280;63554;48.940;12.050;2023-03-31T19:48:53;96009.72;;;8.85;71.20
75008;BME280;63554;48.940;12.050;2023-03-31T19:52:56;95997.56;;;8.82;71.34
75008;BME280;63554;48.940;12.050;2023-03-31T19:56:59;95997.13;;;8.74;71.33
75008;BME280;63554;48.940;12.050;2023-03-31T20:01:03;96014.84;;;8.69;71.76
75008;BME280;63554;48.940;12.050;2023-03-31T20:05:09;96020.84;;;8.60;72.38
75008;BME280;63554;48.940;12.050;2023-03-31T20:09:12;96024.50;;;8.54;72.64
75008;BME280;63554;48.940;12.050;2023-03-31T20:13:14;96029.09;;;8.53;72.52
75008;BME280;63554;48.940;12.050;2023-03-31T20:17:18;96027.38;;;8.47;72.99
75008;BME280;63554;48.940;12.050;2023-03-31T20:21:25;96039.41;;;8.44;73.35
75008;BME280;63554;48.940;12.050;2023-03-31T20:25:31;96046.94;;;8.42;73.94
75008;BME280;63554;48.940;12.050;2023-03-31T20:29:34;96060.41;;;8.30;75.24
75008;BME280;63554;48.940;12.050;2023-03-31T20:33:37;96067.94;;;8.17;77.53
75008;BME280;63554;48.940;12.050;2023-03-31T20:37:42;96065.59;;;7.97;79.13
75008;BME280;63554;48.940;12.050;2023-03-31T20:41:45;96063.28;;;7.77;81.05
75008;BME280;63554;48.940;12.050;2023-03-31T20:45:53;96060.22;;;7.61;81.93
75008;BME280;63554;48.940;12.050;2023-03-31T20:49:58;96060.56;;;7.53;83.53
75008;BME280;63554;48.940;12.050;2023-03-31T20:54:03;96070.25;;;7.42;84.60
75008;BME280;63554;48.940;12.050;2023-03-31T20:58:06;96072.47;;;7.33;85.29
75008;BME280;63554;48.940;12.050;2023-03-31T21:02:10;96069.53;;;7.23;86.07
75008;BME280;63554;48.940;12.050;2023-03-31T21:06:15;96067.72;;;7.17;86.83
75008;BME280;63554;48.940;12.050;2023-03-31T21:10:20;96071.72;;;7.15;87.51
75008;BME280;63554;48.940;12.050;2023-03-31T21:14:22;96070.88;;;7.14;87.37
75008;BME280;63554;48.940;12.050;2023-03-31T21:18:26;96071.72;;;7.15;87.33
75008;BME280;63554;48.940;12.050;2023-03-31T21:22:29;96054.16;;;7.12;87.86
75008;BME280;63554;48.940;12.050;2023-03-31T21:26:33;96043.25;;;7.07;88.14
75008;BME280;63554;48.940;12.050;2023-03-31T21:30:36;96045.38;;;7.05;88.28
75008;BME280;63554;48.940;12.050;2023-03-31T21:34:39;96037.78;;;7.02;88.44
75008;BME280;63554;48.940;12.050;2023-03-31T21:38:42;96040.47;;;7.02;88.31
75008;BME280;63554;48.940;12.050;2023-03-31T21:42:46;96032.03;;;6.98;88.45
75008;BME280;63554;48.940;12.050;2023-03-31T21:46:49;96036.56;;;6.98;88.33
75008;BME280;63554;48.940;12.050;2023-03-31T21:50:52;96034.47;;;7.00;88.12
75008;BME280;63554;48.940;12.050;2023-03-31T21:54:56;96032.03;;;6.98;88.29